Nagaleader — VRDD5 — position and weather

sailwx.info

Track history (hours):
 
Tides and Currents Weather Stations Pressure Air Temp Water Temp Dewpoint Dewpoint Depression Visibility Wind Speed Wind Dir Waves Ship Positions

Nagaleader

Last reported at 2015-May-04 22:24 UTC. Time now 2015-May-05 07:12 UTC.
Position N 22°51' E 120°05'.

Length 113 m; draft 6 m.

Type: Cargo ship. MMSI: 477926700.

Date/timePositionNaut miles runAvg speedWind from/ knotsBaromVisibWave heightAir tempDewpointWater temp
2015-May-04 22:24N 22°51' E 120°05'1012.1
2015-May-04 21:33N 22°42' E 120°09'1111.1
2015-May-04 20:32N 22°33' E 120°17'2 2.1
2015-May-04 19:33N 22°34' E 120°19'0 0.0
2015-May-04 18:33N 22°34' E 120°19'0 0.1
2015-May-04 17:33N 22°34' E 120°19'0 0.1
2015-May-04 16:33N 22°34' E 120°19'0 0.0
2015-May-04 15:27N 22°34' E 120°19'0 0.0
2015-May-04 14:33N 22°34' E 120°19'0 0.0
2015-May-04 13:33N 22°34' E 120°19'1 0.3
2015-May-04 10:17N 22°33' E 120°20'0 0.0
2015-May-04 07:29N 22°33' E 120°20'0 0.2
2015-May-04 06:32N 22°33' E 120°20'3 3.3
2015-May-04 05:31N 22°32' E 120°16'1 1.0
2015-May-04 04:33N 22°33' E 120°16'0 0.0
2015-May-04 03:27N 22°33' E 120°16'0 0.0
2015-May-04 02:27N 22°33' E 120°16'0 0.0
2015-May-04 01:33N 22°33' E 120°16'0 0.0
2015-May-04 00:33N 22°33' E 120°16'0 0.0
2015-May-03 23:33N 22°33' E 120°16'0 0.1
2015-May-03 22:33N 22°33' E 120°16'0 0.0
2015-May-03 21:33N 22°33' E 120°16'0 0.0
2015-May-03 20:33N 22°33' E 120°16'8 8.3
2015-May-03 19:33N 22°39' E 120°09'19311.2
2015-May-03 02:22N 25°51' E 119°53'1512.0
2015-May-03 01:08N 26°05' E 119°47'11 9.9
2015-May-03 00:03N 26°08' E 119°35'5 9.2
2015-May-02 23:33N 26°05' E 119°32'5 5.1
2015-May-02 22:31N 26°00' E 119°29'0 0.0
2015-May-02 21:31N 26°00' E 119°29'0 0.0
2015-May-02 20:31N 26°00' E 119°29'0 0.0
2015-May-02 19:31N 26°00' E 119°29'0 0.0
2015-May-02 18:31N 26°00' E 119°29'0 0.0
2015-May-02 17:31N 26°00' E 119°29'0 0.0
2015-May-02 16:31N 26°00' E 119°29'0 0.0
2015-May-02 15:31N 26°00' E 119°29'0 0.0
2015-May-02 14:19N 26°00' E 119°29'0 0.0
2015-May-02 13:31N 26°00' E 119°29'0 0.0
2015-May-02 12:25N 26°00' E 119°29'0 0.0
2015-May-02 11:25N 26°00' E 119°29'0 0.0
2015-May-02 10:31N 26°00' E 119°29'0 0.0
2015-May-02 09:31N 26°00' E 119°29'1 1.0
2015-May-02 08:33N 26°01' E 119°29'8 8.0
2015-May-02 07:33N 26°08' E 119°35'19411.3
2015-May-01 14:27N 22°56' E 120°03'1011.8
2015-May-01 13:33N 22°46' E 120°07'1111.0
2015-May-01 12:33N 22°37' E 120°15'5 5.4
2015-May-01 11:33N 22°34' E 120°19'0 0.0
2015-May-01 10:22N 22°34' E 120°19'0 0.0
2015-May-01 09:28N 22°34' E 120°19'0 0.0
2015-May-01 08:22N 22°34' E 120°19'0 0.0
2015-May-01 07:28N 22°34' E 120°19'0 0.0
2015-May-01 06:34N 22°34' E 120°19'0 0.1
2015-May-01 05:28N 22°34' E 120°19'1 1.2
2015-May-01 04:24N 22°33' E 120°20'1 0.1
2015-Apr-30 21:30N 22°33' E 120°19'9 9.6
2015-Apr-30 20:34N 22°37' E 120°10'1312.7
2015-Apr-30 19:33N 22°49' E 120°05'6612.8
2015-Apr-30 14:24N 23°55' E 119°59'1212.3
2015-Apr-30 13:27N 24°06' E 119°58'5 1.6
2015-Apr-30 10:25N 24°11' E 119°57'26 8.7
2015-Apr-30 07:24N 24°37' E 119°57'7812.3
2015-Apr-30 01:03N 25°55' E 119°52'1112.3
2015-Apr-30 00:11N 26°05' E 119°47'1110.1
2015-Apr-29 23:05N 26°08' E 119°35'5 9.2
2015-Apr-29 22:33N 26°05' E 119°32'5 4.6
2015-Apr-29 21:28N 26°00' E 119°29'0 0.0
2015-Apr-29 20:31N 26°00' E 119°29'0 0.0
2015-Apr-29 19:25N 26°00' E 119°29'0 0.0
2015-Apr-29 18:31N 26°00' E 119°29'0 0.0
2015-Apr-29 17:31N 26°00' E 119°29'0 0.0
2015-Apr-29 16:31N 26°00' E 119°29'0 0.0
2015-Apr-29 15:31N 26°00' E 119°29'0 0.0
2015-Apr-29 14:31N 26°00' E 119°29'0 0.0
2015-Apr-29 13:25N 26°00' E 119°29'0 0.0
2015-Apr-29 12:19N 26°00' E 119°29'0 0.0
2015-Apr-29 11:31N 26°00' E 119°29'0 0.0
2015-Apr-29 10:31N 26°00' E 119°29'0 0.0
2015-Apr-29 09:25N 26°00' E 119°29'0 0.0
2015-Apr-29 08:25N 26°00' E 119°29'0 0.0
2015-Apr-29 07:25N 26°00' E 119°29'0 0.0
2015-Apr-29 06:19N 26°00' E 119°29'0 0.0
2015-Apr-29 05:31N 26°00' E 119°29'0 0.0
2015-Apr-29 04:31N 26°00' E 119°29'0 0.0
2015-Apr-29 03:31N 26°00' E 119°29'0 0.0
2015-Apr-29 02:31N 26°00' E 119°29'0 0.0
2015-Apr-29 01:31N 26°00' E 119°29'0 0.0
2015-Apr-29 00:31N 26°00' E 119°29'0 0.0
2015-Apr-28 23:31N 26°00' E 119°29'0 0.0
2015-Apr-28 22:31N 26°00' E 119°29'0 0.0
2015-Apr-28 21:25N 26°00' E 119°29'0 0.0
2015-Apr-28 20:31N 26°00' E 119°29'0 0.0
2015-Apr-28 19:31N 26°00' E 119°29'0 0.0
2015-Apr-28 18:24N 26°00' E 119°29'0 0.0
2015-Apr-28 17:18N 26°00' E 119°29'0 0.0
2015-Apr-28 16:30N 26°00' E 119°29'4 4.1
2015-Apr-28 15:33N 26°04' E 119°31'19011.1
2015-Apr-27 22:26N 22°56' E 120°02'1213.1
2015-Apr-27 21:33N 22°45' E 120°06'1212.2
2015-Apr-27 20:33N 22°34' E 120°12'6 6.2
2015-Apr-27 19:33N 22°34' E 120°19'0 0.0
2015-Apr-27 18:22N 22°34' E 120°19'0 0.0
2015-Apr-27 17:28N 22°34' E 120°19'0 0.0
2015-Apr-27 16:28N 22°34' E 120°19'0 0.0
2015-Apr-27 15:28N 22°34' E 120°19'0 0.0
2015-Apr-27 14:28N 22°34' E 120°19'0 0.1
2015-Apr-27 13:31N 22°34' E 120°19'1 1.1
2015-Apr-27 12:32N 22°33' E 120°20'0 0.0
2015-Apr-27 11:14N 22°33' E 120°20'0 0.0
2015-Apr-27 10:26N 22°33' E 120°20'0 0.0
2015-Apr-27 09:20N 22°33' E 120°20'0 0.0
2015-Apr-27 08:32N 22°33' E 120°20'0 0.0
2015-Apr-27 07:32N 22°33' E 120°20'1 0.2
2015-Apr-27 04:33N 22°33' E 120°19'7 7.1
2015-Apr-27 03:33N 22°34' E 120°12'1212.3
2015-Apr-27 02:33N 22°45' E 120°07'18311.4
2015-Apr-26 10:31N 25°48' E 119°54'2110.5
2015-Apr-26 08:32N 26°06' E 119°42'9 8.9
2015-Apr-26 07:33N 26°06' E 119°32'7 6.3
2015-Apr-26 06:31N 26°00' E 119°29'0 0.0
2015-Apr-26 05:30N 26°00' E 119°29'0 0.0
2015-Apr-26 04:30N 26°00' E 119°29'0 0.0
2015-Apr-26 03:30N 26°00' E 119°29'0 0.0
2015-Apr-26 02:30N 26°00' E 119°29'0 0.0
2015-Apr-26 01:30N 26°00' E 119°29'0 0.0
2015-Apr-26 00:24N 26°00' E 119°29'0 0.0
2015-Apr-25 23:24N 26°00' E 119°29'0 0.0
2015-Apr-25 22:12N 26°00' E 119°29'0 0.0
2015-Apr-25 21:30N 26°00' E 119°29'0 0.0
2015-Apr-25 20:30N 26°00' E 119°29'0 0.0
2015-Apr-25 19:30N 26°00' E 119°29'0 0.0
2015-Apr-25 18:24N 26°00' E 119°29'0 0.0
2015-Apr-25 17:18N 26°00' E 119°29'0 0.2
2015-Apr-25 16:33N 26°00' E 119°29'10 9.6
2015-Apr-25 15:33N 26°08' E 119°35'  
Track history (hours):
 
Tides and Currents Weather Stations Pressure Air Temp Water Temp Dewpoint Dewpoint Depression Visibility Wind Speed Wind Dir Waves Ship Positions

Nagaleader

Last reported at 2015-May-04 22:24 UTC. Time now 2015-May-05 07:12 UTC.
Position N 22°51' E 120°05'.

Length 113 m; draft 6 m.

Type: Cargo ship. MMSI: 477926700.

Date/timePositionNaut miles runAvg speedWind from/ knotsBaromVisibWave heightAir tempDewpointWater temp
2015-May-04 22:24N 22°51' E 120°05'1012.1
2015-May-04 21:33N 22°42' E 120°09'1111.1
2015-May-04 20:32N 22°33' E 120°17'2 2.1
2015-May-04 19:33N 22°34' E 120°19'0 0.0
2015-May-04 18:33N 22°34' E 120°19'0 0.1
2015-May-04 17:33N 22°34' E 120°19'0 0.1
2015-May-04 16:33N 22°34' E 120°19'0 0.0
2015-May-04 15:27N 22°34' E 120°19'0 0.0
2015-May-04 14:33N 22°34' E 120°19'0 0.0
2015-May-04 13:33N 22°34' E 120°19'1 0.3
2015-May-04 10:17N 22°33' E 120°20'0 0.0
2015-May-04 07:29N 22°33' E 120°20'0 0.2
2015-May-04 06:32N 22°33' E 120°20'3 3.3
2015-May-04 05:31N 22°32' E 120°16'1 1.0
2015-May-04 04:33N 22°33' E 120°16'0 0.0
2015-May-04 03:27N 22°33' E 120°16'0 0.0
2015-May-04 02:27N 22°33' E 120°16'0 0.0
2015-May-04 01:33N 22°33' E 120°16'0 0.0
2015-May-04 00:33N 22°33' E 120°16'0 0.0
2015-May-03 23:33N 22°33' E 120°16'0 0.1
2015-May-03 22:33N 22°33' E 120°16'0 0.0
2015-May-03 21:33N 22°33' E 120°16'0 0.0
2015-May-03 20:33N 22°33' E 120°16'8 8.3
2015-May-03 19:33N 22°39' E 120°09'19311.2
2015-May-03 02:22N 25°51' E 119°53'1512.0
2015-May-03 01:08N 26°05' E 119°47'11 9.9
2015-May-03 00:03N 26°08' E 119°35'5 9.2
2015-May-02 23:33N 26°05' E 119°32'5 5.1
2015-May-02 22:31N 26°00' E 119°29'0 0.0
2015-May-02 21:31N 26°00' E 119°29'0 0.0
2015-May-02 20:31N 26°00' E 119°29'0 0.0
2015-May-02 19:31N 26°00' E 119°29'0 0.0
2015-May-02 18:31N 26°00' E 119°29'0 0.0
2015-May-02 17:31N 26°00' E 119°29'0 0.0
2015-May-02 16:31N 26°00' E 119°29'0 0.0
2015-May-02 15:31N 26°00' E 119°29'0 0.0
2015-May-02 14:19N 26°00' E 119°29'0 0.0
2015-May-02 13:31N 26°00' E 119°29'0 0.0
2015-May-02 12:25N 26°00' E 119°29'0 0.0
2015-May-02 11:25N 26°00' E 119°29'0 0.0
2015-May-02 10:31N 26°00' E 119°29'0 0.0
2015-May-02 09:31N 26°00' E 119°29'1 1.0
2015-May-02 08:33N 26°01' E 119°29'8 8.0
2015-May-02 07:33N 26°08' E 119°35'19411.3
2015-May-01 14:27N 22°56' E 120°03'1011.8
2015-May-01 13:33N 22°46' E 120°07'1111.0
2015-May-01 12:33N 22°37' E 120°15'5 5.4
2015-May-01 11:33N 22°34' E 120°19'0 0.0
2015-May-01 10:22N 22°34' E 120°19'0 0.0
2015-May-01 09:28N 22°34' E 120°19'0 0.0
2015-May-01 08:22N 22°34' E 120°19'0 0.0
2015-May-01 07:28N 22°34' E 120°19'0 0.0
2015-May-01 06:34N 22°34' E 120°19'0 0.1
2015-May-01 05:28N 22°34' E 120°19'1 1.2
2015-May-01 04:24N 22°33' E 120°20'1 0.1
2015-Apr-30 21:30N 22°33' E 120°19'9 9.6
2015-Apr-30 20:34N 22°37' E 120°10'1312.7
2015-Apr-30 19:33N 22°49' E 120°05'6612.8
2015-Apr-30 14:24N 23°55' E 119°59'1212.3
2015-Apr-30 13:27N 24°06' E 119°58'5 1.6
2015-Apr-30 10:25N 24°11' E 119°57'26 8.7
2015-Apr-30 07:24N 24°37' E 119°57'7812.3
2015-Apr-30 01:03N 25°55' E 119°52'1112.3
2015-Apr-30 00:11N 26°05' E 119°47'1110.1
2015-Apr-29 23:05N 26°08' E 119°35'5 9.2
2015-Apr-29 22:33N 26°05' E 119°32'5 4.6
2015-Apr-29 21:28N 26°00' E 119°29'0 0.0
2015-Apr-29 20:31N 26°00' E 119°29'0 0.0
2015-Apr-29 19:25N 26°00' E 119°29'0 0.0
2015-Apr-29 18:31N 26°00' E 119°29'0 0.0
2015-Apr-29 17:31N 26°00' E 119°29'0 0.0
2015-Apr-29 16:31N 26°00' E 119°29'0 0.0
2015-Apr-29 15:31N 26°00' E 119°29'0 0.0
2015-Apr-29 14:31N 26°00' E 119°29'0 0.0
2015-Apr-29 13:25N 26°00' E 119°29'0 0.0
2015-Apr-29 12:19N 26°00' E 119°29'0 0.0
2015-Apr-29 11:31N 26°00' E 119°29'0 0.0
2015-Apr-29 10:31N 26°00' E 119°29'0 0.0
2015-Apr-29 09:25N 26°00' E 119°29'0 0.0
2015-Apr-29 08:25N 26°00' E 119°29'0 0.0
2015-Apr-29 07:25N 26°00' E 119°29'0 0.0
2015-Apr-29 06:19N 26°00' E 119°29'0 0.0
2015-Apr-29 05:31N 26°00' E 119°29'0 0.0
2015-Apr-29 04:31N 26°00' E 119°29'0 0.0
2015-Apr-29 03:31N 26°00' E 119°29'0 0.0
2015-Apr-29 02:31N 26°00' E 119°29'0 0.0
2015-Apr-29 01:31N 26°00' E 119°29'0 0.0
2015-Apr-29 00:31N 26°00' E 119°29'0 0.0
2015-Apr-28 23:31N 26°00' E 119°29'0 0.0
2015-Apr-28 22:31N 26°00' E 119°29'0 0.0
2015-Apr-28 21:25N 26°00' E 119°29'0 0.0
2015-Apr-28 20:31N 26°00' E 119°29'0 0.0
2015-Apr-28 19:31N 26°00' E 119°29'0 0.0
2015-Apr-28 18:24N 26°00' E 119°29'0 0.0
2015-Apr-28 17:18N 26°00' E 119°29'0 0.0
2015-Apr-28 16:30N 26°00' E 119°29'4 4.1
2015-Apr-28 15:33N 26°04' E 119°31'19011.1
2015-Apr-27 22:26N 22°56' E 120°02'1213.1
2015-Apr-27 21:33N 22°45' E 120°06'1212.2
2015-Apr-27 20:33N 22°34' E 120°12'6 6.2
2015-Apr-27 19:33N 22°34' E 120°19'0 0.0
2015-Apr-27 18:22N 22°34' E 120°19'0 0.0
2015-Apr-27 17:28N 22°34' E 120°19'0 0.0
2015-Apr-27 16:28N 22°34' E 120°19'0 0.0
2015-Apr-27 15:28N 22°34' E 120°19'0 0.0
2015-Apr-27 14:28N 22°34' E 120°19'0 0.1
2015-Apr-27 13:31N 22°34' E 120°19'1 1.1
2015-Apr-27 12:32N 22°33' E 120°20'0 0.0
2015-Apr-27 11:14N 22°33' E 120°20'0 0.0
2015-Apr-27 10:26N 22°33' E 120°20'0 0.0
2015-Apr-27 09:20N 22°33' E 120°20'0 0.0
2015-Apr-27 08:32N 22°33' E 120°20'0 0.0
2015-Apr-27 07:32N 22°33' E 120°20'1 0.2
2015-Apr-27 04:33N 22°33' E 120°19'7 7.1
2015-Apr-27 03:33N 22°34' E 120°12'1212.3
2015-Apr-27 02:33N 22°45' E 120°07'18311.4
2015-Apr-26 10:31N 25°48' E 119°54'2110.5
2015-Apr-26 08:32N 26°06' E 119°42'9 8.9
2015-Apr-26 07:33N 26°06' E 119°32'7 6.3
2015-Apr-26 06:31N 26°00' E 119°29'0 0.0
2015-Apr-26 05:30N 26°00' E 119°29'0 0.0
2015-Apr-26 04:30N 26°00' E 119°29'0 0.0
2015-Apr-26 03:30N 26°00' E 119°29'0 0.0
2015-Apr-26 02:30N 26°00' E 119°29'0 0.0
2015-Apr-26 01:30N 26°00' E 119°29'0 0.0
2015-Apr-26 00:24N 26°00' E 119°29'0 0.0
2015-Apr-25 23:24N 26°00' E 119°29'0 0.0
2015-Apr-25 22:12N 26°00' E 119°29'0 0.0
2015-Apr-25 21:30N 26°00' E 119°29'0 0.0
2015-Apr-25 20:30N 26°00' E 119°29'0 0.0
2015-Apr-25 19:30N 26°00' E 119°29'0 0.0
2015-Apr-25 18:24N 26°00' E 119°29'0 0.0
2015-Apr-25 17:18N 26°00' E 119°29'0 0.2
2015-Apr-25 16:33N 26°00' E 119°29'10 9.6
2015-Apr-25 15:33N 26°08' E 119°35'  

Dump ship's entire track history